Bay Hills, New York
Current Conditions -  °F | °C
As of 12:21 PM on Sunday 21 Dec 2014 (Local Time) from KFRG Reporting Station
Overcast Overcast  
Wind Chill: -2°   Ceiling: 1600
Heat Index:   Visibility: 10mi
Dew Point: -2°   Wind: 7mph
Humidity: 78%   Direction: 330°NNW
Pressure: 30.28"   Gusts: NA
Location:  40.8966°N, 73.4362°W
Report Text: KFRG 211721Z 33006KT 10SM OVC016 02/M02 A3028 RMK AO2 T00171017
Loading
Personal Weather Stations






























Interactive Weather Map New forecast layout! Learn more

10-Day Weather Forecast

Advertisements
Track Severe Weather on mobile